sensor_id;sensor_type;location;lat;lon;timestamp;P1;durP1;ratioP1;P2;durP2;ratioP2
5555;SDS011;2801;50.972;7.856;2023-11-21T00:01:18;76.50;;;9.30;;
5555;SDS011;2801;50.972;7.856;2023-11-21T00:03:45;68.03;;;8.37;;
5555;SDS011;2801;50.972;7.856;2023-11-21T00:06:12;76.60;;;9.40;;
5555;SDS011;2801;50.972;7.856;2023-11-21T00:08:40;215.70;;;12.63;;
5555;SDS011;2801;50.972;7.856;2023-11-21T00:11:06;205.83;;;11.23;;
5555;SDS011;2801;50.972;7.856;2023-11-21T00:13:34;196.07;;;11.60;;
5555;SDS011;2801;50.972;7.856;2023-11-21T00:16:01;153.63;;;10.23;;
5555;SDS011;2801;50.972;7.856;2023-11-21T00:18:29;108.53;;;8.93;;
5555;SDS011;2801;50.972;7.856;2023-11-21T00:20:56;97.40;;;8.50;;
5555;SDS011;2801;50.972;7.856;2023-11-21T00:23:25;67.83;;;8.17;;
5555;SDS011;2801;50.972;7.856;2023-11-21T00:25:52;111.23;;;8.93;;
5555;SDS011;2801;50.972;7.856;2023-11-21T00:28:19;90.37;;;8.57;;
5555;SDS011;2801;50.972;7.856;2023-11-21T00:30:46;88.00;;;9.10;;
5555;SDS011;2801;50.972;7.856;2023-11-21T00:33:13;80.63;;;8.70;;
5555;SDS011;2801;50.972;7.856;2023-11-21T00:35:41;87.10;;;8.87;;
5555;SDS011;2801;50.972;7.856;2023-11-21T00:38:08;89.37;;;9.17;;
5555;SDS011;2801;50.972;7.856;2023-11-21T00:40:35;80.53;;;8.70;;
5555;SDS011;2801;50.972;7.856;2023-11-21T00:43:02;74.33;;;9.13;;
5555;SDS011;2801;50.972;7.856;2023-11-21T00:45:31;65.43;;;9.53;;
5555;SDS011;2801;50.972;7.856;2023-11-21T00:47:58;89.60;;;9.70;;
5555;SDS011;2801;50.972;7.856;2023-11-21T00:50:26;73.90;;;10.10;;
5555;SDS011;2801;50.972;7.856;2023-11-21T00:52:53;54.73;;;8.63;;
5555;SDS011;2801;50.972;7.856;2023-11-21T00:55:20;36.90;;;8.30;;
5555;SDS011;2801;50.972;7.856;2023-11-21T00:57:47;75.43;;;9.43;;
5555;SDS011;2801;50.972;7.856;2023-11-21T01:00:15;87.93;;;10.47;;
5555;SDS011;2801;50.972;7.856;2023-11-21T01:02:45;71.00;;;10.93;;
5555;SDS011;2801;50.972;7.856;2023-11-21T01:05:13;58.73;;;9.77;;
5555;SDS011;2801;50.972;7.856;2023-11-21T01:07:40;68.07;;;10.73;;
5555;SDS011;2801;50.972;7.856;2023-11-21T01:10:08;145.67;;;12.17;;
5555;SDS011;2801;50.972;7.856;2023-11-21T01:12:36;140.37;;;11.87;;
5555;SDS011;2801;50.972;7.856;2023-11-21T01:15:05;120.23;;;11.43;;
5555;SDS011;2801;50.972;7.856;2023-11-21T01:17:38;91.67;;;10.70;;
5555;SDS011;2801;50.972;7.856;2023-11-21T01:20:07;92.67;;;10.13;;
5555;SDS011;2801;50.972;7.856;2023-11-21T01:22:39;108.70;;;9.43;;
5555;SDS011;2801;50.972;7.856;2023-11-21T01:25:08;40.00;;;7.23;;
5555;SDS011;2801;50.972;7.856;2023-11-21T01:27:36;46.53;;;8.30;;
5555;SDS011;2801;50.972;7.856;2023-11-21T01:30:03;59.53;;;8.10;;
5555;SDS011;2801;50.972;7.856;2023-11-21T01:32:31;108.83;;;9.73;;
5555;SDS011;2801;50.972;7.856;2023-11-21T01:34:59;133.50;;;11.43;;
5555;SDS011;2801;50.972;7.856;2023-11-21T01:37:26;109.03;;;10.90;;
5555;SDS011;2801;50.972;7.856;2023-11-21T01:39:54;104.73;;;11.40;;
5555;SDS011;2801;50.972;7.856;2023-11-21T01:42:22;192.67;;;13.50;;
5555;SDS011;2801;50.972;7.856;2023-11-21T01:44:49;144.40;;;11.87;;
5555;SDS011;2801;50.972;7.856;2023-11-21T01:47:16;117.33;;;12.10;;
5555;SDS011;2801;50.972;7.856;2023-11-21T01:49:44;132.77;;;12.53;;
5555;SDS011;2801;50.972;7.856;2023-11-21T01:52:12;127.10;;;12.27;;
5555;SDS011;2801;50.972;7.856;2023-11-21T01:54:41;153.73;;;12.53;;
5555;SDS011;2801;50.972;7.856;2023-11-21T01:57:08;147.80;;;12.73;;
5555;SDS011;2801;50.972;7.856;2023-11-21T01:59:37;82.43;;;12.73;;
5555;SDS011;2801;50.972;7.856;2023-11-21T02:02:05;153.30;;;12.93;;
5555;SDS011;2801;50.972;7.856;2023-11-21T02:04:33;103.37;;;12.37;;
5555;SDS011;2801;50.972;7.856;2023-11-21T02:07:01;130.40;;;13.23;;
5555;SDS011;2801;50.972;7.856;2023-11-21T02:09:31;120.47;;;12.87;;
5555;SDS011;2801;50.972;7.856;2023-11-21T02:12:00;98.57;;;13.50;;
5555;SDS011;2801;50.972;7.856;2023-11-21T02:14:29;85.23;;;12.43;;
5555;SDS011;2801;50.972;7.856;2023-11-21T02:16:57;99.37;;;13.17;;
5555;SDS011;2801;50.972;7.856;2023-11-21T02:19:24;106.17;;;12.20;;
5555;SDS011;2801;50.972;7.856;2023-11-21T02:21:57;89.03;;;11.27;;
5555;SDS011;2801;50.972;7.856;2023-11-21T02:24:29;85.43;;;11.60;;
5555;SDS011;2801;50.972;7.856;2023-11-21T02:26:57;95.37;;;11.27;;
5555;SDS011;2801;50.972;7.856;2023-11-21T02:29:24;126.63;;;13.13;;
5555;SDS011;2801;50.972;7.856;2023-11-21T02:31:54;103.17;;;11.43;;
5555;SDS011;2801;50.972;7.856;2023-11-21T02:34:22;105.93;;;12.63;;
5555;SDS011;2801;50.972;7.856;2023-11-21T02:36:52;126.03;;;13.43;;
5555;SDS011;2801;50.972;7.856;2023-11-21T02:39:20;119.10;;;12.07;;
5555;SDS011;2801;50.972;7.856;2023-11-21T02:41:51;108.33;;;13.10;;
5555;SDS011;2801;50.972;7.856;2023-11-21T02:44:18;127.57;;;13.33;;
5555;SDS011;2801;50.972;7.856;2023-11-21T02:46:45;88.40;;;12.30;;
5555;SDS011;2801;50.972;7.856;2023-11-21T02:49:13;107.93;;;13.03;;
5555;SDS011;2801;50.972;7.856;2023-11-21T02:51:40;142.90;;;13.27;;
5555;SDS011;2801;50.972;7.856;2023-11-21T02:54:07;103.70;;;13.30;;
5555;SDS011;2801;50.972;7.856;2023-11-21T02:56:35;145.10;;;12.70;;
5555;SDS011;2801;50.972;7.856;2023-11-21T02:59:02;119.77;;;12.50;;
5555;SDS011;2801;50.972;7.856;2023-11-21T03:01:30;149.27;;;13.37;;
5555;SDS011;2801;50.972;7.856;2023-11-21T03:03:57;125.57;;;13.03;;
5555;SDS011;2801;50.972;7.856;2023-11-21T03:06:25;115.47;;;11.67;;
5555;SDS011;2801;50.972;7.856;2023-11-21T03:08:52;157.70;;;13.40;;
5555;SDS011;2801;50.972;7.856;2023-11-21T03:11:19;119.93;;;12.80;;
5555;SDS011;2801;50.972;7.856;2023-11-21T03:13:47;93.93;;;12.77;;
5555;SDS011;2801;50.972;7.856;2023-11-21T03:16:14;114.80;;;11.37;;
5555;SDS011;2801;50.972;7.856;2023-11-21T03:18:42;134.10;;;13.37;;
5555;SDS011;2801;50.972;7.856;2023-11-21T03:21:09;81.90;;;12.80;;
5555;SDS011;2801;50.972;7.856;2023-11-21T03:23:36;89.63;;;12.60;;
5555;SDS011;2801;50.972;7.856;2023-11-21T03:26:04;66.70;;;12.13;;
5555;SDS011;2801;50.972;7.856;2023-11-21T03:28:32;98.47;;;14.43;;
5555;SDS011;2801;50.972;7.856;2023-11-21T03:31:00;104.43;;;13.47;;
5555;SDS011;2801;50.972;7.856;2023-11-21T03:33:27;68.53;;;13.23;;
5555;SDS011;2801;50.972;7.856;2023-11-21T03:35:56;61.77;;;12.27;;
5555;SDS011;2801;50.972;7.856;2023-11-21T03:38:23;56.03;;;12.53;;
5555;SDS011;2801;50.972;7.856;2023-11-21T03:40:50;69.30;;;12.73;;
5555;SDS011;2801;50.972;7.856;2023-11-21T03:43:19;46.03;;;11.77;;
5555;SDS011;2801;50.972;7.856;2023-11-21T03:45:47;54.20;;;13.13;;
5555;SDS011;2801;50.972;7.856;2023-11-21T03:48:14;44.30;;;11.87;;
5555;SDS011;2801;50.972;7.856;2023-11-21T03:50:42;48.10;;;11.67;;
5555;SDS011;2801;50.972;7.856;2023-11-21T03:53:09;61.23;;;12.17;;
5555;SDS011;2801;50.972;7.856;2023-11-21T03:55:36;43.77;;;11.63;;
5555;SDS011;2801;50.972;7.856;2023-11-21T03:58:03;50.87;;;11.80;;
5555;SDS011;2801;50.972;7.856;2023-11-21T04:00:31;56.63;;;11.43;;
5555;SDS011;2801;50.972;7.856;2023-11-21T04:02:58;62.47;;;12.03;;
5555;SDS011;2801;50.972;7.856;2023-11-21T04:05:25;60.80;;;11.90;;
5555;SDS011;2801;50.972;7.856;2023-11-21T04:07:52;66.37;;;11.93;;
5555;SDS011;2801;50.972;7.856;2023-11-21T04:10:20;58.97;;;12.57;;
5555;SDS011;2801;50.972;7.856;2023-11-21T04:12:48;47.17;;;12.07;;
5555;SDS011;2801;50.972;7.856;2023-11-21T04:15:15;48.77;;;13.00;;
5555;SDS011;2801;50.972;7.856;2023-11-21T04:17:42;51.33;;;12.20;;
5555;SDS011;2801;50.972;7.856;2023-11-21T04:20:10;55.67;;;12.20;;
5555;SDS011;2801;50.972;7.856;2023-11-21T04:22:38;56.20;;;12.93;;
5555;SDS011;2801;50.972;7.856;2023-11-21T04:25:12;61.30;;;12.57;;
5555;SDS011;2801;50.972;7.856;2023-11-21T04:27:42;69.23;;;12.63;;
5555;SDS011;2801;50.972;7.856;2023-11-21T04:30:11;54.87;;;12.83;;
5555;SDS011;2801;50.972;7.856;2023-11-21T04:32:40;55.90;;;12.37;;
5555;SDS011;2801;50.972;7.856;2023-11-21T04:35:08;67.87;;;13.17;;
5555;SDS011;2801;50.972;7.856;2023-11-21T04:37:35;47.10;;;13.23;;
5555;SDS011;2801;50.972;7.856;2023-11-21T04:40:03;56.77;;;13.80;;
5555;SDS011;2801;50.972;7.856;2023-11-21T04:42:34;58.60;;;12.43;;
5555;SDS011;2801;50.972;7.856;2023-11-21T04:45:03;47.80;;;13.17;;
5555;SDS011;2801;50.972;7.856;2023-11-21T04:47:36;45.97;;;12.77;;
5555;SDS011;2801;50.972;7.856;2023-11-21T04:50:03;65.63;;;14.80;;
5555;SDS011;2801;50.972;7.856;2023-11-21T04:52:32;49.57;;;13.37;;
5555;SDS011;2801;50.972;7.856;2023-11-21T04:54:59;63.03;;;13.73;;
5555;SDS011;2801;50.972;7.856;2023-11-21T04:57:28;61.60;;;13.10;;
5555;SDS011;2801;50.972;7.856;2023-11-21T04:59:55;49.40;;;13.03;;
5555;SDS011;2801;50.972;7.856;2023-11-21T05:02:22;53.57;;;13.43;;
5555;SDS011;2801;50.972;7.856;2023-11-21T05:05:01;50.57;;;13.70;;
5555;SDS011;2801;50.972;7.856;2023-11-21T05:07:29;63.33;;;15.27;;
5555;SDS011;2801;50.972;7.856;2023-11-21T05:09:58;57.60;;;13.70;;
5555;SDS011;2801;50.972;7.856;2023-11-21T05:12:25;61.37;;;13.43;;
5555;SDS011;2801;50.972;7.856;2023-11-21T05:14:52;50.87;;;13.50;;
5555;SDS011;2801;50.972;7.856;2023-11-21T05:17:19;50.10;;;13.57;;
5555;SDS011;2801;50.972;7.856;2023-11-21T05:19:47;56.67;;;14.13;;
5555;SDS011;2801;50.972;7.856;2023-11-21T05:22:15;49.53;;;13.10;;
5555;SDS011;2801;50.972;7.856;2023-11-21T05:24:42;50.17;;;14.27;;
5555;SDS011;2801;50.972;7.856;2023-11-21T05:27:10;65.50;;;14.97;;
5555;SDS011;2801;50.972;7.856;2023-11-21T05:29:37;61.53;;;13.23;;
5555;SDS011;2801;50.972;7.856;2023-11-21T05:32:04;49.63;;;13.77;;
5555;SDS011;2801;50.972;7.856;2023-11-21T05:34:31;63.77;;;14.47;;
5555;SDS011;2801;50.972;7.856;2023-11-21T05:36:59;42.37;;;12.93;;
5555;SDS011;2801;50.972;7.856;2023-11-21T05:39:26;62.77;;;14.43;;
5555;SDS011;2801;50.972;7.856;2023-11-21T05:41:54;61.13;;;15.53;;
5555;SDS011;2801;50.972;7.856;2023-11-21T05:44:21;57.60;;;14.67;;
5555;SDS011;2801;50.972;7.856;2023-11-21T05:46:50;55.43;;;15.23;;
5555;SDS011;2801;50.972;7.856;2023-11-21T05:49:17;53.37;;;15.27;;
5555;SDS011;2801;50.972;7.856;2023-11-21T05:51:48;49.47;;;14.90;;
5555;SDS011;2801;50.972;7.856;2023-11-21T05:54:15;52.17;;;14.17;;
5555;SDS011;2801;50.972;7.856;2023-11-21T05:56:43;49.13;;;13.17;;
5555;SDS011;2801;50.972;7.856;2023-11-21T05:59:11;53.77;;;13.13;;
5555;SDS011;2801;50.972;7.856;2023-11-21T06:01:38;62.07;;;13.40;;
5555;SDS011;2801;50.972;7.856;2023-11-21T06:04:05;47.30;;;12.37;;
5555;SDS011;2801;50.972;7.856;2023-11-21T06:06:35;53.33;;;12.77;;
5555;SDS011;2801;50.972;7.856;2023-11-21T06:09:02;45.53;;;12.43;;
5555;SDS011;2801;50.972;7.856;2023-11-21T06:11:29;56.23;;;12.40;;
5555;SDS011;2801;50.972;7.856;2023-11-21T06:13:56;56.50;;;12.47;;
5555;SDS011;2801;50.972;7.856;2023-11-21T06:16:24;62.97;;;12.50;;
5555;SDS011;2801;50.972;7.856;2023-11-21T06:18:51;49.57;;;13.17;;
5555;SDS011;2801;50.972;7.856;2023-11-21T06:21:18;57.47;;;14.67;;
5555;SDS011;2801;50.972;7.856;2023-11-21T06:23:45;51.60;;;14.50;;
5555;SDS011;2801;50.972;7.856;2023-11-21T06:26:18;63.10;;;15.33;;
5555;SDS011;2801;50.972;7.856;2023-11-21T06:28:46;59.27;;;14.60;;
5555;SDS011;2801;50.972;7.856;2023-11-21T06:31:14;63.13;;;15.77;;
5555;SDS011;2801;50.972;7.856;2023-11-21T06:33:41;57.43;;;15.10;;
5555;SDS011;2801;50.972;7.856;2023-11-21T06:36:09;56.63;;;15.63;;
5555;SDS011;2801;50.972;7.856;2023-11-21T06:38:38;56.10;;;15.63;;
5555;SDS011;2801;50.972;7.856;2023-11-21T06:41:04;60.17;;;15.90;;
5555;SDS011;2801;50.972;7.856;2023-11-21T06:43:32;65.57;;;15.90;;
5555;SDS011;2801;50.972;7.856;2023-11-21T06:45:59;61.53;;;15.67;;
5555;SDS011;2801;50.972;7.856;2023-11-21T06:48:26;58.13;;;15.23;;
5555;SDS011;2801;50.972;7.856;2023-11-21T06:50:53;65.03;;;15.50;;
5555;SDS011;2801;50.972;7.856;2023-11-21T06:53:20;60.63;;;20.67;;
5555;SDS011;2801;50.972;7.856;2023-11-21T06:55:48;66.50;;;24.53;;
5555;SDS011;2801;50.972;7.856;2023-11-21T06:58:15;89.20;;;36.33;;
5555;SDS011;2801;50.972;7.856;2023-11-21T07:00:42;71.47;;;28.83;;
5555;SDS011;2801;50.972;7.856;2023-11-21T07:03:13;64.10;;;20.53;;
5555;SDS011;2801;50.972;7.856;2023-11-21T07:05:40;45.50;;;17.13;;
5555;SDS011;2801;50.972;7.856;2023-11-21T07:08:07;50.57;;;16.53;;
5555;SDS011;2801;50.972;7.856;2023-11-21T07:10:35;45.40;;;14.30;;
5555;SDS011;2801;50.972;7.856;2023-11-21T07:13:03;47.43;;;13.97;;
5555;SDS011;2801;50.972;7.856;2023-11-21T07:15:30;42.33;;;13.33;;
5555;SDS011;2801;50.972;7.856;2023-11-21T07:17:57;42.57;;;13.63;;
5555;SDS011;2801;50.972;7.856;2023-11-21T07:20:24;45.70;;;12.77;;
5555;SDS011;2801;50.972;7.856;2023-11-21T07:22:52;50.00;;;11.97;;
5555;SDS011;2801;50.972;7.856;2023-11-21T07:25:19;56.50;;;11.63;;
5555;SDS011;2801;50.972;7.856;2023-11-21T07:27:46;47.47;;;12.37;;
5555;SDS011;2801;50.972;7.856;2023-11-21T07:30:13;68.47;;;12.13;;
5555;SDS011;2801;50.972;7.856;2023-11-21T07:32:40;77.83;;;13.33;;
5555;SDS011;2801;50.972;7.856;2023-11-21T07:35:08;63.63;;;11.73;;
5555;SDS011;2801;50.972;7.856;2023-11-21T07:37:35;65.33;;;14.10;;
5555;SDS011;2801;50.972;7.856;2023-11-21T07:40:04;64.43;;;14.20;;
5555;SDS011;2801;50.972;7.856;2023-11-21T07:42:35;65.20;;;13.40;;
5555;SDS011;2801;50.972;7.856;2023-11-21T07:45:02;53.13;;;13.30;;
5555;SDS011;2801;50.972;7.856;2023-11-21T07:47:31;88.90;;;12.53;;
5555;SDS011;2801;50.972;7.856;2023-11-21T07:50:05;88.00;;;14.63;;
5555;SDS011;2801;50.972;7.856;2023-11-21T07:52:34;61.03;;;12.70;;
5555;SDS011;2801;50.972;7.856;2023-11-21T07:55:01;66.63;;;13.97;;
5555;SDS011;2801;50.972;7.856;2023-11-21T07:57:29;90.00;;;15.13;;
5555;SDS011;2801;50.972;7.856;2023-11-21T07:59:59;123.97;;;18.47;;
5555;SDS011;2801;50.972;7.856;2023-11-21T08:02:26;85.07;;;16.73;;
5555;SDS011;2801;50.972;7.856;2023-11-21T08:04:54;77.03;;;15.60;;
5555;SDS011;2801;50.972;7.856;2023-11-21T08:07:25;105.93;;;16.57;;
5555;SDS011;2801;50.972;7.856;2023-11-21T08:09:52;52.53;;;14.53;;
5555;SDS011;2801;50.972;7.856;2023-11-21T08:12:20;68.37;;;14.93;;
5555;SDS011;2801;50.972;7.856;2023-11-21T08:14:48;62.33;;;14.93;;
5555;SDS011;2801;50.972;7.856;2023-11-21T08:17:17;70.93;;;14.90;;
5555;SDS011;2801;50.972;7.856;2023-11-21T08:19:46;51.33;;;15.07;;
5555;SDS011;2801;50.972;7.856;2023-11-21T08:22:16;78.40;;;16.20;;
5555;SDS011;2801;50.972;7.856;2023-11-21T08:24:44;69.20;;;16.27;;
5555;SDS011;2801;50.972;7.856;2023-11-21T08:27:13;64.83;;;17.47;;
5555;SDS011;2801;50.972;7.856;2023-11-21T08:29:43;66.80;;;17.40;;
5555;SDS011;2801;50.972;7.856;2023-11-21T08:32:10;55.27;;;17.37;;
5555;SDS011;2801;50.972;7.856;2023-11-21T08:34:38;61.63;;;18.07;;
5555;SDS011;2801;50.972;7.856;2023-11-21T08:37:06;71.83;;;18.23;;
5555;SDS011;2801;50.972;7.856;2023-11-21T08:39:36;54.20;;;13.77;;
5555;SDS011;2801;50.972;7.856;2023-11-21T08:42:04;50.07;;;12.70;;
5555;SDS011;2801;50.972;7.856;2023-11-21T08:44:31;69.18;;;19.38;;
5555;SDS011;2801;50.972;7.856;2023-11-21T08:46:58;70.73;;;21.60;;
5555;SDS011;2801;50.972;7.856;2023-11-21T08:49:25;67.27;;;19.57;;
5555;SDS011;2801;50.972;7.856;2023-11-21T08:51:54;61.72;;;20.08;;
5555;SDS011;2801;50.972;7.856;2023-11-21T08:54:21;61.75;;;19.05;;
5555;SDS011;2801;50.972;7.856;2023-11-21T08:56:48;59.03;;;15.93;;
5555;SDS011;2801;50.972;7.856;2023-11-21T08:59:16;52.27;;;14.07;;
5555;SDS011;2801;50.972;7.856;2023-11-21T09:01:43;56.80;;;16.05;;
5555;SDS011;2801;50.972;7.856;2023-11-21T09:04:10;47.13;;;14.67;;
5555;SDS011;2801;50.972;7.856;2023-11-21T09:06:39;47.42;;;12.98;;
5555;SDS011;2801;50.972;7.856;2023-11-21T09:09:07;52.83;;;13.83;;
5555;SDS011;2801;50.972;7.856;2023-11-21T09:11:36;47.33;;;13.30;;
5555;SDS011;2801;50.972;7.856;2023-11-21T09:14:05;45.90;;;13.18;;
5555;SDS011;2801;50.972;7.856;2023-11-21T09:16:32;52.92;;;13.98;;
5555;SDS011;2801;50.972;7.856;2023-11-21T09:19:00;49.77;;;13.83;;
5555;SDS011;2801;50.972;7.856;2023-11-21T09:21:28;51.67;;;14.70;;
5555;SDS011;2801;50.972;7.856;2023-11-21T09:23:55;54.30;;;15.30;;
5555;SDS011;2801;50.972;7.856;2023-11-21T09:26:24;55.67;;;15.47;;
5555;SDS011;2801;50.972;7.856;2023-11-21T09:28:51;53.17;;;15.00;;
5555;SDS011;2801;50.972;7.856;2023-11-21T09:31:19;51.73;;;14.63;;
5555;SDS011;2801;50.972;7.856;2023-11-21T09:33:49;40.30;;;13.17;;
5555;SDS011;2801;50.972;7.856;2023-11-21T09:36:17;39.15;;;12.45;;
5555;SDS011;2801;50.972;7.856;2023-11-21T09:38:44;39.33;;;11.73;;
5555;SDS011;2801;50.972;7.856;2023-11-21T09:41:15;34.70;;;10.88;;
5555;SDS011;2801;50.972;7.856;2023-11-21T09:44:11;36.08;;;10.45;;
5555;SDS011;2801;50.972;7.856;2023-11-21T09:46:50;36.83;;;11.18;;
5555;SDS011;2801;50.972;7.856;2023-11-21T09:49:22;39.95;;;11.18;;
5555;SDS011;2801;50.972;7.856;2023-11-21T09:51:55;35.90;;;11.53;;
5555;SDS011;2801;50.972;7.856;2023-11-21T09:54:25;40.37;;;13.13;;
5555;SDS011;2801;50.972;7.856;2023-11-21T09:56:55;36.42;;;12.68;;
5555;SDS011;2801;50.972;7.856;2023-11-21T09:59:28;29.75;;;10.35;;
5555;SDS011;2801;50.972;7.856;2023-11-21T10:01:58;27.17;;;9.05;;
5555;SDS011;2801;50.972;7.856;2023-11-21T10:04:27;28.05;;;9.52;;
5555;SDS011;2801;50.972;7.856;2023-11-21T10:06:55;29.35;;;9.48;;
5555;SDS011;2801;50.972;7.856;2023-11-21T10:09:23;22.63;;;9.20;;
5555;SDS011;2801;50.972;7.856;2023-11-21T10:11:53;23.60;;;9.07;;
5555;SDS011;2801;50.972;7.856;2023-11-21T10:14:23;30.83;;;10.05;;
5555;SDS011;2801;50.972;7.856;2023-11-21T10:16:55;24.42;;;9.60;;
5555;SDS011;2801;50.972;7.856;2023-11-21T10:19:24;27.25;;;10.93;;
5555;SDS011;2801;50.972;7.856;2023-11-21T10:21:53;25.52;;;9.63;;
5555;SDS011;2801;50.972;7.856;2023-11-21T10:24:20;34.50;;;11.77;;
5555;SDS011;2801;50.972;7.856;2023-11-21T10:26:48;32.95;;;11.50;;
5555;SDS011;2801;50.972;7.856;2023-11-21T10:29:19;29.00;;;10.05;;
5555;SDS011;2801;50.972;7.856;2023-11-21T10:31:49;30.58;;;10.50;;
5555;SDS011;2801;50.972;7.856;2023-11-21T10:34:18;32.15;;;10.45;;
5555;SDS011;2801;50.972;7.856;2023-11-21T10:36:47;27.42;;;9.45;;
5555;SDS011;2801;50.972;7.856;2023-11-21T10:39:16;32.65;;;10.13;;
5555;SDS011;2801;50.972;7.856;2023-11-21T10:41:49;30.20;;;10.45;;
5555;SDS011;2801;50.972;7.856;2023-11-21T10:44:17;25.98;;;10.52;;
5555;SDS011;2801;50.972;7.856;2023-11-21T10:46:51;30.08;;;11.25;;
5555;SDS011;2801;50.972;7.856;2023-11-21T10:49:26;25.02;;;9.98;;
5555;SDS011;2801;50.972;7.856;2023-11-21T10:51:54;31.52;;;11.25;;
5555;SDS011;2801;50.972;7.856;2023-11-21T10:54:24;30.08;;;11.75;;
5555;SDS011;2801;50.972;7.856;2023-11-21T10:56:59;28.40;;;10.60;;
5555;SDS011;2801;50.972;7.856;2023-11-21T10:59:28;33.90;;;12.03;;
5555;SDS011;2801;50.972;7.856;2023-11-21T11:01:59;30.25;;;10.38;;
5555;SDS011;2801;50.972;7.856;2023-11-21T11:04:35;28.67;;;9.80;;
5555;SDS011;2801;50.972;7.856;2023-11-21T11:07:05;22.20;;;8.88;;
5555;SDS011;2801;50.972;7.856;2023-11-21T11:09:38;28.30;;;9.18;;
5555;SDS011;2801;50.972;7.856;2023-11-21T11:12:06;24.70;;;9.95;;
5555;SDS011;2801;50.972;7.856;2023-11-21T11:14:36;20.23;;;9.13;;
5555;SDS011;2801;50.972;7.856;2023-11-21T11:17:07;22.80;;;9.55;;
5555;SDS011;2801;50.972;7.856;2023-11-21T11:19:36;21.27;;;8.83;;
5555;SDS011;2801;50.972;7.856;2023-11-21T11:31:46;22.60;;;9.45;;
5555;SDS011;2801;50.972;7.856;2023-11-21T11:34:53;17.65;;;8.85;;
5555;SDS011;2801;50.972;7.856;2023-11-21T11:37:45;18.20;;;8.40;;
5555;SDS011;2801;50.972;7.856;2023-11-21T11:40:13;18.58;;;8.70;;
5555;SDS011;2801;50.972;7.856;2023-11-21T11:42:57;19.17;;;8.00;;
5555;SDS011;2801;50.972;7.856;2023-11-21T11:45:31;18.77;;;7.43;;
5555;SDS011;2801;50.972;7.856;2023-11-21T11:48:02;17.20;;;7.10;;
5555;SDS011;2801;50.972;7.856;2023-11-21T11:50:31;17.60;;;8.38;;
5555;SDS011;2801;50.972;7.856;2023-11-21T11:53:12;25.45;;;10.50;;
5555;SDS011;2801;50.972;7.856;2023-11-21T11:55:41;16.08;;;7.82;;
5555;SDS011;2801;50.972;7.856;2023-11-21T11:58:10;18.27;;;9.55;;
5555;SDS011;2801;50.972;7.856;2023-11-21T12:00:39;17.05;;;7.53;;
5555;SDS011;2801;50.972;7.856;2023-11-21T12:03:08;19.02;;;8.88;;
5555;SDS011;2801;50.972;7.856;2023-11-21T12:05:36;15.48;;;7.45;;
5555;SDS011;2801;50.972;7.856;2023-11-21T12:08:07;16.92;;;7.32;;
5555;SDS011;2801;50.972;7.856;2023-11-21T12:10:38;17.63;;;7.68;;
5555;SDS011;2801;50.972;7.856;2023-11-21T12:13:09;18.77;;;8.00;;
5555;SDS011;2801;50.972;7.856;2023-11-21T12:15:41;15.00;;;7.38;;
5555;SDS011;2801;50.972;7.856;2023-11-21T12:18:08;13.88;;;6.63;;
5555;SDS011;2801;50.972;7.856;2023-11-21T12:20:36;18.73;;;7.30;;
5555;SDS011;2801;50.972;7.856;2023-11-21T12:23:06;15.40;;;7.10;;
5555;SDS011;2801;50.972;7.856;2023-11-21T12:25:40;13.05;;;6.28;;
5555;SDS011;2801;50.972;7.856;2023-11-21T12:28:08;14.50;;;7.00;;
5555;SDS011;2801;50.972;7.856;2023-11-21T12:30:35;17.77;;;6.05;;
5555;SDS011;2801;50.972;7.856;2023-11-21T12:33:05;17.27;;;6.57;;
5555;SDS011;2801;50.972;7.856;2023-11-21T12:35:33;16.77;;;6.80;;
5555;SDS011;2801;50.972;7.856;2023-11-21T12:38:03;17.50;;;6.20;;
5555;SDS011;2801;50.972;7.856;2023-11-21T12:40:32;11.73;;;5.68;;
5555;SDS011;2801;50.972;7.856;2023-11-21T12:42:59;12.55;;;6.13;;
5555;SDS011;2801;50.972;7.856;2023-11-21T12:45:30;17.25;;;6.53;;
5555;SDS011;2801;50.972;7.856;2023-11-21T12:48:01;17.83;;;6.95;;
5555;SDS011;2801;50.972;7.856;2023-11-21T12:50:35;13.98;;;6.82;;
5555;SDS011;2801;50.972;7.856;2023-11-21T12:53:08;10.55;;;5.28;;
5555;SDS011;2801;50.972;7.856;2023-11-21T12:55:39;11.45;;;5.85;;
5555;SDS011;2801;50.972;7.856;2023-11-21T12:58:10;13.23;;;6.45;;
5555;SDS011;2801;50.972;7.856;2023-11-21T13:00:43;12.75;;;5.40;;
5555;SDS011;2801;50.972;7.856;2023-11-21T13:03:14;12.52;;;5.88;;
5555;SDS011;2801;50.972;7.856;2023-11-21T13:05:46;12.05;;;5.82;;
5555;SDS011;2801;50.972;7.856;2023-11-21T13:08:21;16.17;;;6.72;;
5555;SDS011;2801;50.972;7.856;2023-11-21T13:10:55;23.63;;;7.60;;
5555;SDS011;2801;50.972;7.856;2023-11-21T13:13:24;16.83;;;6.72;;
5555;SDS011;2801;50.972;7.856;2023-11-21T13:15:56;14.00;;;6.07;;
5555;SDS011;2801;50.972;7.856;2023-11-21T13:18:31;14.15;;;6.97;;
5555;SDS011;2801;50.972;7.856;2023-11-21T13:20:59;16.67;;;7.10;;
5555;SDS011;2801;50.972;7.856;2023-11-21T13:23:45;13.63;;;5.87;;
5555;SDS011;2801;50.972;7.856;2023-11-21T13:26:13;11.43;;;5.75;;
5555;SDS011;2801;50.972;7.856;2023-11-21T13:28:42;14.10;;;5.35;;
5555;SDS011;2801;50.972;7.856;2023-11-21T13:31:13;13.32;;;4.63;;
5555;SDS011;2801;50.972;7.856;2023-11-21T13:33:49;12.80;;;4.88;;
5555;SDS011;2801;50.972;7.856;2023-11-21T13:36:23;12.13;;;5.63;;
5555;SDS011;2801;50.972;7.856;2023-11-21T13:38:52;14.18;;;5.68;;
5555;SDS011;2801;50.972;7.856;2023-11-21T13:41:20;13.02;;;4.95;;
5555;SDS011;2801;50.972;7.856;2023-11-21T13:43:56;11.05;;;4.32;;
5555;SDS011;2801;50.972;7.856;2023-11-21T13:46:38;11.40;;;5.05;;
5555;SDS011;2801;50.972;7.856;2023-11-21T13:49:05;11.20;;;5.03;;
5555;SDS011;2801;50.972;7.856;2023-11-21T13:51:37;14.10;;;5.53;;
5555;SDS011;2801;50.972;7.856;2023-11-21T13:54:09;11.02;;;4.40;;
5555;SDS011;2801;50.972;7.856;2023-11-21T13:56:37;8.75;;;3.90;;
5555;SDS011;2801;50.972;7.856;2023-11-21T13:59:06;9.57;;;3.88;;
5555;SDS011;2801;50.972;7.856;2023-11-21T14:01:46;9.23;;;4.68;;
5555;SDS011;2801;50.972;7.856;2023-11-21T14:04:24;8.85;;;5.00;;
5555;SDS011;2801;50.972;7.856;2023-11-21T14:07:11;7.25;;;4.07;;
5555;SDS011;2801;50.972;7.856;2023-11-21T14:10:02;8.40;;;4.47;;
5555;SDS011;2801;50.972;7.856;2023-11-21T14:12:33;12.13;;;4.93;;
5555;SDS011;2801;50.972;7.856;2023-11-21T14:15:04;8.98;;;4.75;;
5555;SDS011;2801;50.972;7.856;2023-11-21T14:17:36;7.80;;;4.20;;
5555;SDS011;2801;50.972;7.856;2023-11-21T14:20:06;13.23;;;5.38;;
5555;SDS011;2801;50.972;7.856;2023-11-21T14:22:41;11.32;;;5.20;;
5555;SDS011;2801;50.972;7.856;2023-11-21T14:25:08;14.77;;;6.57;;
5555;SDS011;2801;50.972;7.856;2023-11-21T14:27:37;13.00;;;4.95;;
5555;SDS011;2801;50.972;7.856;2023-11-21T14:30:05;8.82;;;4.80;;
5555;SDS011;2801;50.972;7.856;2023-11-21T14:32:32;8.50;;;4.05;;
5555;SDS011;2801;50.972;7.856;2023-11-21T14:35:01;17.70;;;6.25;;
5555;SDS011;2801;50.972;7.856;2023-11-21T14:37:30;17.90;;;5.55;;
5555;SDS011;2801;50.972;7.856;2023-11-21T14:39:57;11.50;;;5.13;;
5555;SDS011;2801;50.972;7.856;2023-11-21T14:42:24;13.15;;;6.07;;
5555;SDS011;2801;50.972;7.856;2023-11-21T14:44:55;10.18;;;5.10;;
5555;SDS011;2801;50.972;7.856;2023-11-21T14:47:26;9.57;;;4.90;;
5555;SDS011;2801;50.972;7.856;2023-11-21T14:49:54;10.32;;;5.03;;
5555;SDS011;2801;50.972;7.856;2023-11-21T14:52:24;8.68;;;4.53;;
5555;SDS011;2801;50.972;7.856;2023-11-21T14:55:02;8.73;;;4.68;;
5555;SDS011;2801;50.972;7.856;2023-11-21T14:57:49;8.98;;;4.55;;
5555;SDS011;2801;50.972;7.856;2023-11-21T15:00:17;9.40;;;4.65;;
5555;SDS011;2801;50.972;7.856;2023-11-21T15:03:02;11.43;;;4.68;;
5555;SDS011;2801;50.972;7.856;2023-11-21T15:05:31;14.20;;;6.03;;
5555;SDS011;2801;50.972;7.856;2023-11-21T15:08:01;13.25;;;5.38;;
5555;SDS011;2801;50.972;7.856;2023-11-21T15:10:57;9.68;;;5.15;;
5555;SDS011;2801;50.972;7.856;2023-11-21T15:13:25;11.60;;;5.45;;